Time;durP1;ratioP1;P1;durP2;ratioP2;P2;SDS_P1;SDS_P2;PMS_P1;PMS_P2;Temp;Humidity;BMP_temperature;BMP_pressure;BME280_temperature;BME280_humidity;BME280_pressure;Samples;Min_cycle;Max_cycle;Signal;HPM_P1;HPM_P2
2023/10/08 00:00:43;;;;;;;6.63;3.60;;;16.50;13.30;;;;;;5031678;28;20199;-86
2023/10/08 00:03:10;;;;;;;4.93;3.50;;;16.50;13.00;;;;;;5030794;28;20217;-86
2023/10/08 00:05:37;;;;;;;5.70;3.38;;;16.50;13.30;;;;;;5029598;28;20226;-86
2023/10/08 00:08:07;;;;;;;6.15;3.92;;;16.70;12.80;;;;;;5038351;28;20206;-86
2023/10/08 00:10:37;;;;;;;5.45;3.55;;;16.70;12.90;;;;;;5026729;28;20710;-86
2023/10/08 00:13:07;;;;;;;7.95;3.97;;;16.80;13.30;;;;;;5042875;28;20234;-87
2023/10/08 00:15:36;;;;;;;6.40;3.70;;;16.80;13.40;;;;;;5031023;28;20214;-86
2023/10/08 00:18:04;;;;;;;5.28;3.67;;;16.80;13.70;;;;;;5028096;28;20202;-86
2023/10/08 00:20:35;;;;;;;5.35;3.47;;;16.80;13.40;;;;;;5032127;28;20206;-86
2023/10/08 00:23:07;;;;;;;7.70;3.90;;;16.80;13.40;;;;;;5027665;28;20209;-86
2023/10/08 00:25:40;;;;;;;5.80;3.83;;;16.90;12.60;;;;;;5035265;28;20225;-87
2023/10/08 00:28:10;;;;;;;6.20;3.75;;;17.00;13.30;;;;;;5038354;28;20253;-86
2023/10/08 00:30:40;;;;;;;5.55;3.78;;;17.10;13.40;;;;;;5026003;28;20206;-86
2023/10/08 00:33:08;;;;;;;5.00;3.67;;;17.10;12.80;;;;;;5028887;28;20210;-87
2023/10/08 00:35:38;;;;;;;6.55;3.60;;;17.20;13.00;;;;;;5025024;28;20696;-86
2023/10/08 00:38:14;;;;;;;6.82;3.50;;;17.30;12.70;;;;;;5034303;28;20202;-86
2023/10/08 00:40:45;;;;;;;8.00;3.90;;;17.40;12.80;;;;;;5022207;28;20774;-86
2023/10/08 00:43:27;;;;;;;5.95;3.80;;;17.50;12.30;;;;;;5028150;28;20203;-86
2023/10/08 00:45:54;;;;;;;5.82;3.58;;;17.50;12.80;;;;;;5030536;28;20233;-86
2023/10/08 00:48:22;;;;;;;4.45;3.55;;;17.60;12.40;;;;;;5030396;28;20195;-87
2023/10/08 00:50:50;;;;;;;5.78;3.83;;;17.60;12.60;;;;;;5046569;28;20230;-86
2023/10/08 00:53:21;;;;;;;4.70;3.55;;;17.60;13.10;;;;;;5028056;28;20198;-87
2023/10/08 00:55:53;;;;;;;6.63;3.70;;;17.80;11.90;;;;;;5030100;28;20203;-86
2023/10/08 00:58:24;;;;;;;6.45;3.72;;;17.80;11.70;;;;;;5022149;28;20199;-87
2023/10/08 01:00:59;;;;;;;5.50;3.40;;;17.80;12.30;;;;;;5029613;28;20214;-87
2023/10/08 01:03:27;;;;;;;5.63;3.50;;;17.70;12.20;;;;;;5037294;28;20315;-86
2023/10/08 01:05:55;;;;;;;6.35;3.45;;;17.80;12.10;;;;;;5030399;28;20281;-87
2023/10/08 01:08:35;;;;;;;5.03;3.42;;;17.80;12.20;;;;;;5021823;28;20322;-87
2023/10/08 01:13:58;;;;;;;7.10;3.70;;;17.80;12.30;;;;;;5135395;27;20563;-87
2023/10/08 01:16:26;;;;;;;7.07;3.63;;;17.90;11.80;;;;;;5108642;28;20207;-87
2023/10/08 01:18:55;;;;;;;8.15;3.53;;;17.90;12.00;;;;;;5108549;28;20210;-87
2023/10/08 01:21:34;;;;;;;5.85;3.35;;;18.00;11.70;;;;;;5105467;28;20288;-87
2023/10/08 01:24:05;;;;;;;9.57;3.60;;;18.00;11.70;;;;;;5096910;28;20227;-87
2023/10/08 01:26:33;;;;;;;8.05;3.45;;;18.10;12.00;;;;;;5113121;27;20253;-87
2023/10/08 01:29:03;;;;;;;6.43;3.58;;;18.10;11.60;;;;;;5105379;28;20192;-87
2023/10/08 01:31:31;;;;;;;8.30;3.75;;;18.00;11.70;;;;;;5087054;28;20199;-87
2023/10/08 01:33:58;;;;;;;9.90;3.80;;;17.90;12.00;;;;;;5112133;27;20191;-87
2023/10/08 01:36:26;;;;;;;9.32;3.92;;;18.00;11.70;;;;;;5097202;28;20193;-87
2023/10/08 01:38:54;;;;;;;7.65;3.47;;;17.90;11.80;;;;;;5089846;28;20196;-87
2023/10/08 01:41:29;;;;;;;6.68;3.15;;;18.00;12.00;;;;;;5101277;28;20212;-87
2023/10/08 01:43:57;;;;;;;5.53;3.60;;;18.00;12.10;;;;;;5103104;28;20206;-87
2023/10/08 01:46:25;;;;;;;9.45;3.42;;;18.10;12.00;;;;;;5094744;28;20192;-87
2023/10/08 01:48:56;;;;;;;7.50;3.67;;;18.10;12.20;;;;;;5079000;28;20284;-87
2023/10/08 01:51:28;;;;;;;7.05;3.60;;;18.00;12.10;;;;;;5097658;28;20589;-87
2023/10/08 01:53:57;;;;;;;6.85;3.63;;;18.10;12.30;;;;;;5095592;28;20227;-87
2023/10/08 01:56:25;;;;;;;7.60;3.65;;;18.10;12.90;;;;;;5110445;27;20192;-87
2023/10/08 01:58:52;;;;;;;7.40;4.10;;;18.10;12.40;;;;;;5103051;28;20204;-87
2023/10/08 02:01:20;;;;;;;6.13;3.15;;;18.00;12.20;;;;;;5108621;28;20200;-87
2023/10/08 02:03:47;;;;;;;5.78;3.38;;;18.00;11.80;;;;;;5105971;28;20226;-87
2023/10/08 02:06:14;;;;;;;9.27;3.55;;;18.00;11.50;;;;;;5104980;28;20231;-87
2023/10/08 02:08:41;;;;;;;6.63;3.58;;;18.10;13.00;;;;;;5096233;28;20206;-87
2023/10/08 02:11:08;;;;;;;5.70;3.53;;;18.10;11.50;;;;;;5109675;28;20541;-87
2023/10/08 02:13:36;;;;;;;9.18;3.50;;;18.10;12.10;;;;;;5100297;28;20577;-86
2023/10/08 02:16:03;;;;;;;7.32;3.83;;;18.10;11.90;;;;;;5103949;28;20202;-87
2023/10/08 02:18:30;;;;;;;7.07;3.60;;;18.10;11.50;;;;;;5116332;28;20200;-87
2023/10/08 02:20:58;;;;;;;7.95;3.63;;;18.10;11.60;;;;;;5102735;27;20201;-87
2023/10/08 02:23:25;;;;;;;10.45;3.70;;;18.10;11.90;;;;;;5112109;28;20192;-87
2023/10/08 02:25:52;;;;;;;5.78;3.42;;;18.10;12.00;;;;;;5089395;28;20196;-87
2023/10/08 02:28:20;;;;;;;7.43;3.72;;;18.00;11.70;;;;;;5081689;28;20197;-87
2023/10/08 02:30:49;;;;;;;10.23;3.85;;;18.00;12.00;;;;;;5091066;28;20211;-87
2023/10/08 02:33:16;;;;;;;7.78;3.42;;;17.90;12.30;;;;;;5087729;28;20221;-87
2023/10/08 02:35:43;;;;;;;6.10;3.33;;;17.90;12.50;;;;;;5096556;28;20209;-87
2023/10/08 02:38:12;;;;;;;6.85;3.30;;;17.90;12.60;;;;;;5086583;28;20201;-86
2023/10/08 02:40:44;;;;;;;7.93;3.60;;;17.90;12.80;;;;;;5086176;28;20212;-86
2023/10/08 02:43:11;;;;;;;7.82;3.72;;;17.80;12.70;;;;;;5087241;28;20197;-87
2023/10/08 02:45:39;;;;;;;7.63;3.40;;;17.80;12.90;;;;;;5084175;28;20229;-87
2023/10/08 02:48:11;;;;;;;8.20;3.80;;;17.90;12.20;;;;;;5096240;28;20927;-87
2023/10/08 02:50:39;;;;;;;6.45;3.25;;;17.80;13.20;;;;;;5080012;28;20227;-87
2023/10/08 02:53:10;;;;;;;5.65;3.28;;;17.80;12.70;;;;;;5088762;28;20227;-87
2023/10/08 02:55:42;;;;;;;7.10;3.53;;;17.70;12.90;;;;;;5080618;28;20790;-87
2023/10/08 02:58:11;;;;;;;5.63;3.17;;;17.70;13.20;;;;;;5087437;28;20204;-86
2023/10/08 03:00:40;;;;;;;8.70;3.65;;;17.70;13.10;;;;;;5085993;28;20198;-86
2023/10/08 03:03:15;;;;;;;5.93;3.45;;;17.70;13.60;;;;;;5093907;28;20220;-87
2023/10/08 03:05:43;;;;;;;5.13;2.70;;;17.60;13.70;;;;;;5087899;28;20208;-87
2023/10/08 03:08:11;;;;;;;5.63;3.20;;;17.60;13.30;;;;;;5082170;28;20188;-87
2023/10/08 03:10:39;;;;;;;9.35;3.58;;;17.60;14.50;;;;;;5091662;28;20192;-87
2023/10/08 03:13:09;;;;;;;6.18;3.65;;;17.50;13.70;;;;;;5086730;28;20277;-87
2023/10/08 03:15:40;;;;;;;6.00;3.25;;;17.40;13.80;;;;;;5083457;28;20224;-87
2023/10/08 03:18:14;;;;;;;8.48;3.45;;;17.40;13.50;;;;;;5088866;28;20677;-87
2023/10/08 03:20:44;;;;;;;7.20;3.55;;;17.40;14.00;;;;;;5097991;28;20193;-87
2023/10/08 03:23:12;;;;;;;6.22;3.67;;;17.40;14.20;;;;;;5092564;28;20675;-87
2023/10/08 03:25:42;;;;;;;5.68;3.08;;;17.30;14.40;;;;;;5087514;28;20192;-87
2023/10/08 03:28:13;;;;;;;5.25;3.10;;;17.30;14.10;;;;;;5093353;28;20204;-87
2023/10/08 03:30:49;;;;;;;5.53;3.15;;;17.30;14.30;;;;;;5075425;28;20190;-87
2023/10/08 03:33:22;;;;;;;5.50;3.13;;;17.30;14.50;;;;;;5093379;28;20238;-87
2023/10/08 03:35:52;;;;;;;7.75;3.47;;;17.30;14.70;;;;;;5089083;28;20307;-87
2023/10/08 03:38:28;;;;;;;8.13;3.67;;;17.20;14.40;;;;;;5091834;28;20223;-87
2023/10/08 03:41:03;;;;;;;6.60;3.25;;;17.20;14.80;;;;;;5088710;28;20232;-87
2023/10/08 03:43:42;;;;;;;7.05;3.15;;;17.20;14.90;;;;;;5093193;28;20200;-87
2023/10/08 03:46:15;;;;;;;6.28;3.63;;;17.20;14.80;;;;;;5094029;28;20899;-87
2023/10/08 03:48:44;;;;;;;6.65;3.35;;;17.20;15.00;;;;;;5091571;28;20250;-87
2023/10/08 03:51:12;;;;;;;5.32;3.05;;;17.20;14.90;;;;;;5092098;28;20294;-87
2023/10/08 03:53:57;;;;;;;6.07;3.38;;;17.20;15.00;;;;;;5091680;28;20217;-87
2023/10/08 03:56:25;;;;;;;7.70;3.42;;;17.10;15.10;;;;;;5099560;28;20198;-86
2023/10/08 03:58:54;;;;;;;8.68;3.75;;;17.10;15.10;;;;;;5087820;28;20220;-86
2023/10/08 04:01:23;;;;;;;6.38;3.08;;;17.10;15.30;;;;;;5083172;28;20208;-87
2023/10/08 04:04:00;;;;;;;7.88;3.50;;;17.10;15.40;;;;;;5085068;28;20220;-87
2023/10/08 04:06:37;;;;;;;5.97;3.10;;;17.10;15.40;;;;;;5078489;28;20701;-87
2023/10/08 04:09:16;;;;;;;8.85;3.30;;;17.10;15.50;;;;;;5087764;28;20224;-86
2023/10/08 04:14:25;;;;;;;6.47;3.40;;;17.00;15.60;;;;;;5074756;28;20315;-86
2023/10/08 04:16:52;;;;;;;8.40;3.47;;;17.00;15.60;;;;;;5079483;28;20201;-87
2023/10/08 04:19:26;;;;;;;6.65;3.15;;;17.10;15.60;;;;;;5083354;28;20199;-87
2023/10/08 04:21:54;;;;;;;7.53;3.35;;;17.10;15.50;;;;;;5090906;28;20216;-87
2023/10/08 04:24:29;;;;;;;8.70;3.30;;;17.10;15.40;;;;;;5075350;28;20680;-87
2023/10/08 04:27:02;;;;;;;8.05;3.67;;;17.10;15.40;;;;;;5087811;28;20212;-87
2023/10/08 04:29:31;;;;;;;8.98;3.90;;;17.20;15.20;;;;;;5080805;28;20197;-87
2023/10/08 04:32:07;;;;;;;9.10;3.40;;;17.20;15.20;;;;;;5082696;28;20196;-87
2023/10/08 04:34:35;;;;;;;8.07;4.10;;;17.20;15.20;;;;;;5078088;28;20220;-87
2023/10/08 04:37:04;;;;;;;6.93;3.15;;;17.20;15.20;;;;;;5079380;28;20732;-86
2023/10/08 04:39:33;;;;;;;9.88;3.80;;;17.20;15.20;;;;;;5088572;28;20203;-87
2023/10/08 04:42:06;;;;;;;5.25;3.45;;;17.20;15.30;;;;;;5091605;28;20198;-87
2023/10/08 04:44:34;;;;;;;9.57;3.53;;;17.20;15.30;;;;;;5095665;28;20926;-87
2023/10/08 04:47:06;;;;;;;9.48;3.70;;;17.20;16.20;;;;;;5083894;28;20197;-87
2023/10/08 04:49:38;;;;;;;5.78;3.03;;;17.20;15.60;;;;;;5079882;28;20193;-86
2023/10/08 04:52:13;;;;;;;12.30;3.85;;;17.20;15.50;;;;;;5076959;28;20216;-86
2023/10/08 04:54:46;;;;;;;9.98;3.05;;;17.20;15.50;;;;;;5086599;28;20224;-87
2023/10/08 04:57:15;;;;;;;10.45;3.40;;;17.20;15.60;;;;;;5079507;28;20207;-86
2023/10/08 04:59:43;;;;;;;8.90;3.35;;;17.20;15.50;;;;;;5079098;28;20272;-85
2023/10/08 05:02:19;;;;;;;8.77;3.85;;;17.10;15.60;;;;;;5089351;28;20195;-87
2023/10/08 05:05:07;;;;;;;8.00;3.85;;;17.10;16.40;;;;;;5088186;28;20204;-88
2023/10/08 05:13:16;;;;;;;7.85;3.42;;;17.10;15.60;;;;;;5072635;28;20216;-87
2023/10/08 05:16:01;;;;;;;7.47;3.42;;;17.10;15.60;;;;;;5088382;28;20204;-87
2023/10/08 05:18:54;;;;;;;13.48;3.45;;;17.10;15.50;;;;;;5085110;28;20200;-88
2023/10/08 05:21:25;;;;;;;9.18;3.25;;;17.10;15.70;;;;;;5077752;28;20228;-91
2023/10/08 05:24:08;;;;;;;7.68;3.53;;;17.10;15.60;;;;;;5081864;28;20223;-86
2023/10/08 05:26:45;;;;;;;9.82;3.55;;;17.10;15.50;;;;;;5081499;28;20329;-88
2023/10/08 05:29:39;;;;;;;7.07;2.92;;;17.20;15.60;;;;;;5078610;28;20843;-88
2023/10/08 05:35:30;;;;;;;12.32;4.00;;;17.20;14.90;;;;;;5085889;28;20239;-86
2023/10/08 05:37:42;;;;;;;7.97;3.38;;;17.40;14.70;;;;;;5078292;28;20206;-86
2023/10/08 05:40:21;;;;;;;8.27;3.20;;;17.30;14.50;;;;;;5095753;28;20193;-86
2023/10/08 05:42:49;;;;;;;10.05;3.65;;;17.40;14.00;;;;;;5084111;28;20310;-86
2023/10/08 05:45:29;;;;;;;7.88;3.63;;;17.50;14.30;;;;;;5081447;28;20284;-86
2023/10/08 05:48:13;;;;;;;8.52;3.78;;;17.60;14.20;;;;;;5083231;28;20228;-86
2023/10/08 05:50:43;;;;;;;6.88;3.40;;;17.70;13.50;;;;;;5089158;28;20858;-86
2023/10/08 05:53:29;;;;;;;9.02;3.78;;;17.70;13.30;;;;;;5089519;28;20220;-86
2023/10/08 05:56:16;;;;;;;7.03;3.38;;;17.80;12.50;;;;;;5095451;28;20649;-86
2023/10/08 05:58:45;;;;;;;6.90;3.67;;;17.80;12.90;;;;;;5080188;28;20795;-86
2023/10/08 06:01:29;;;;;;;8.82;4.03;;;17.80;12.30;;;;;;5085168;28;20280;-86
2023/10/08 06:04:11;;;;;;;5.25;3.28;;;17.80;12.30;;;;;;5095443;28;20279;-86
2023/10/08 06:06:47;;;;;;;7.28;3.78;;;17.80;12.60;;;;;;5085068;28;20232;-86
2023/10/08 06:09:34;;;;;;;9.77;3.50;;;17.80;14.10;;;;;;5095768;28;20192;-86
2023/10/08 06:12:09;;;;;;;8.00;3.70;;;17.90;12.80;;;;;;5087376;28;20287;-86
2023/10/08 06:15:08;;;;;;;4.80;3.35;;;17.90;12.50;;;;;;5083919;28;20580;-86
2023/10/08 06:17:55;;;;;;;7.72;3.65;;;17.90;12.50;;;;;;5088787;28;22283;-86
2023/10/08 06:20:26;;;;;;;8.93;3.78;;;17.90;12.00;;;;;;5087629;28;20207;-86
2023/10/08 06:22:59;;;;;;;7.68;3.50;;;18.00;12.40;;;;;;5087230;28;20660;-86
2023/10/08 06:25:30;;;;;;;5.70;3.65;;;18.00;12.70;;;;;;5081812;28;20246;-87
2023/10/08 06:27:57;;;;;;;6.88;3.53;;;18.00;12.60;;;;;;5084662;28;20284;-87
2023/10/08 06:30:28;;;;;;;6.00;3.55;;;17.90;12.80;;;;;;5086882;28;20196;-86
2023/10/08 06:32:56;;;;;;;4.97;3.30;;;18.00;13.20;;;;;;5083655;28;20201;-87
2023/10/08 06:35:27;;;;;;;6.80;3.75;;;17.90;13.20;;;;;;5077012;28;20565;-87
2023/10/08 06:37:59;;;;;;;7.30;3.60;;;17.90;13.50;;;;;;5085259;28;20714;-86
2023/10/08 06:40:43;;;;;;;8.40;3.40;;;17.80;13.10;;;;;;5093817;28;20224;-86
2023/10/08 06:43:16;;;;;;;7.13;4.00;;;17.80;13.40;;;;;;5082240;28;20618;-86
2023/10/08 06:45:46;;;;;;;6.47;3.75;;;17.80;14.00;;;;;;5088409;28;20204;-85
2023/10/08 06:48:18;;;;;;;7.38;3.58;;;17.80;13.80;;;;;;5082816;28;20254;-86
2023/10/08 06:50:46;;;;;;;6.32;3.67;;;17.90;13.40;;;;;;5089120;28;20252;-87
2023/10/08 06:53:14;;;;;;;6.47;3.95;;;17.90;13.60;;;;;;5091267;28;20207;-86
2023/10/08 06:55:43;;;;;;;6.50;3.65;;;17.80;14.30;;;;;;5090599;28;20205;-87
2023/10/08 06:58:11;;;;;;;4.47;3.47;;;17.80;14.10;;;;;;5094249;28;20224;-87
2023/10/08 07:00:39;;;;;;;7.50;3.67;;;17.80;14.60;;;;;;5091296;28;20199;-87
2023/10/08 07:03:10;;;;;;;5.47;3.92;;;17.70;14.60;;;;;;5078633;28;20226;-88
2023/10/08 07:05:40;;;;;;;5.47;3.83;;;17.80;14.40;;;;;;5093892;28;20196;-87
2023/10/08 07:08:09;;;;;;;8.10;3.90;;;17.70;14.80;;;;;;5085059;28;20698;-87
2023/10/08 07:10:36;;;;;;;6.43;3.72;;;17.80;14.70;;;;;;5082415;28;20228;-86
2023/10/08 07:13:07;;;;;;;10.73;3.72;;;18.00;14.20;;;;;;5081713;28;20208;-87
2023/10/08 07:15:38;;;;;;;5.43;3.20;;;18.00;15.00;;;;;;5087733;28;20221;-88
2023/10/08 07:18:12;;;;;;;7.95;3.90;;;18.10;14.70;;;;;;5080581;28;20242;-87
2023/10/08 07:20:41;;;;;;;7.05;3.58;;;18.30;14.90;;;;;;5085973;28;20228;-87
2023/10/08 07:23:19;;;;;;;7.05;3.78;;;18.40;13.70;;;;;;5094003;28;20250;-87
2023/10/08 07:25:53;;;;;;;11.13;3.75;;;18.50;14.70;;;;;;5087861;28;20196;-87
2023/10/08 07:28:21;;;;;;;8.07;3.60;;;18.50;14.20;;;;;;5112378;27;20275;-88
2023/10/08 07:30:49;;;;;;;7.28;3.63;;;18.60;14.00;;;;;;5086217;28;20197;-87
2023/10/08 07:33:18;;;;;;;8.90;3.47;;;18.60;14.00;;;;;;5079716;28;20207;-87
2023/10/08 07:35:53;;;;;;;8.88;3.97;;;18.70;14.00;;;;;;5087807;28;20197;-88
2023/10/08 07:38:21;;;;;;;10.80;3.90;;;18.90;14.30;;;;;;5089239;28;20207;-88
2023/10/08 07:40:49;;;;;;;8.73;3.72;;;19.30;13.70;;;;;;5083189;28;20246;-87
2023/10/08 07:43:20;;;;;;;7.03;3.55;;;19.60;12.60;;;;;;5088346;28;20598;-87
2023/10/08 07:45:48;;;;;;;9.00;3.60;;;19.70;13.80;;;;;;5085409;28;20198;-87
2023/10/08 07:48:15;;;;;;;8.63;4.30;;;19.70;13.80;;;;;;5090156;28;20197;-87
2023/10/08 07:50:45;;;;;;;10.80;4.15;;;19.80;14.50;;;;;;5092015;28;20209;-86
2023/10/08 07:53:17;;;;;;;10.38;4.13;;;19.80;13.60;;;;;;5089627;28;20199;-87
2023/10/08 07:55:46;;;;;;;8.35;3.88;;;19.80;13.80;;;;;;5094684;28;20229;-87
2023/10/08 07:58:15;;;;;;;9.50;3.92;;;19.80;13.30;;;;;;5086366;28;20201;-87
2023/10/08 08:00:51;;;;;;;9.88;4.00;;;19.70;13.70;;;;;;5085550;28;20230;-88
2023/10/08 08:03:20;;;;;;;7.30;3.55;;;19.70;13.30;;;;;;5082608;28;20205;-86
2023/10/08 08:05:48;;;;;;;7.30;4.00;;;19.70;13.30;;;;;;5080643;28;20577;-86
2023/10/08 08:08:17;;;;;;;8.05;3.92;;;19.70;13.40;;;;;;5089477;28;20200;-86
2023/10/08 08:10:45;;;;;;;8.30;3.55;;;19.60;13.60;;;;;;5090136;28;20197;-86
2023/10/08 08:13:13;;;;;;;11.98;3.80;;;19.60;13.20;;;;;;5086205;28;20196;-87
2023/10/08 08:15:43;;;;;;;8.13;3.80;;;19.60;14.10;;;;;;5086197;28;20304;-87
2023/10/08 08:18:21;;;;;;;8.48;3.60;;;19.70;13.60;;;;;;5079837;28;20257;-86
2023/10/08 08:20:50;;;;;;;7.93;3.65;;;19.80;13.60;;;;;;5084726;28;20220;-87
2023/10/08 08:23:17;;;;;;;8.90;3.95;;;19.80;13.80;;;;;;5088232;28;20246;-87
2023/10/08 08:26:05;;;;;;;11.40;3.72;;;19.80;13.30;;;;;;5076109;28;20205;-87
2023/10/08 08:28:32;;;;;;;11.05;4.00;;;19.90;13.20;;;;;;5086761;28;20215;-87
2023/10/08 08:31:04;;;;;;;12.25;4.25;;;19.80;13.90;;;;;;5093383;28;20196;-88
2023/10/08 08:33:52;;;;;;;8.48;3.60;;;19.80;14.00;;;;;;5089826;28;20250;-87
2023/10/08 08:36:20;;;;;;;7.15;3.70;;;19.90;13.80;;;;;;5079771;28;20192;-88
2023/10/08 08:38:47;;;;;;;12.40;4.55;;;19.90;13.80;;;;;;5085318;28;20226;-89
2023/10/08 08:41:17;;;;;;;11.85;4.25;;;19.80;14.60;;;;;;5090002;28;20235;-87
2023/10/08 08:43:46;;;;;;;9.88;4.05;;;19.70;14.80;;;;;;5076389;28;20205;-86
2023/10/08 08:46:13;;;;;;;11.18;3.92;;;19.60;14.30;;;;;;5095843;28;20201;-85
2023/10/08 08:48:42;;;;;;;12.27;4.35;;;19.60;14.60;;;;;;5086523;28;20282;-86
2023/10/08 08:51:10;;;;;;;31.15;18.30;;;19.50;15.20;;;;;;5083600;28;20223;-87
2023/10/08 08:53:38;;;;;;;11.98;5.10;;;19.60;15.10;;;;;;5086450;28;20283;-85
2023/10/08 08:56:09;;;;;;;13.23;5.90;;;19.60;15.10;;;;;;5087524;28;20696;-86
2023/10/08 08:58:36;;;;;;;9.38;4.00;;;19.60;15.00;;;;;;5093567;28;20287;-87
2023/10/08 09:01:07;;;;;;;7.85;4.20;;;19.60;15.30;;;;;;5085439;28;20228;-86
2023/10/08 09:03:34;;;;;;;6.38;4.00;;;19.60;15.30;;;;;;5084237;28;20188;-86
2023/10/08 09:06:04;;;;;;;10.48;4.00;;;19.60;15.90;;;;;;5087246;28;20201;-86
2023/10/08 09:08:34;;;;;;;6.85;3.83;;;19.50;16.00;;;;;;5083161;28;20364;-86
2023/10/08 09:11:04;;;;;;;11.40;4.15;;;19.50;16.60;;;;;;5085800;28;20193;-89
2023/10/08 09:13:34;;;;;;;9.20;4.05;;;19.50;16.30;;;;;;5079529;28;20208;-86
2023/10/08 09:16:09;;;;;;;9.15;4.05;;;19.60;15.40;;;;;;5091104;28;20224;-86
2023/10/08 09:18:36;;;;;;;14.02;4.60;;;19.70;16.60;;;;;;5084575;28;20192;-86
2023/10/08 09:21:11;;;;;;;13.25;4.38;;;19.80;16.90;;;;;;5084701;28;20193;-85
2023/10/08 09:23:44;;;;;;;9.63;4.10;;;19.90;16.80;;;;;;5079454;28;20197;-87
2023/10/08 09:26:14;;;;;;;11.20;4.28;;;19.90;16.30;;;;;;5088624;28;20232;-86
2023/10/08 09:28:42;;;;;;;9.48;3.85;;;20.00;16.60;;;;;;5079298;28;20201;-86
2023/10/08 09:31:12;;;;;;;10.30;4.28;;;20.10;16.00;;;;;;5087507;28;20569;-85
2023/10/08 09:33:39;;;;;;;13.27;4.18;;;20.10;16.50;;;;;;5087732;28;20197;-85
2023/10/08 09:36:10;;;;;;;10.85;4.20;;;20.10;16.50;;;;;;5100502;28;20705;-86
2023/10/08 09:38:38;;;;;;;10.00;4.22;;;20.00;16.70;;;;;;5088834;28;20193;-86
2023/10/08 09:41:08;;;;;;;7.28;3.92;;;20.10;16.40;;;;;;5090086;28;20201;-86
2023/10/08 09:43:38;;;;;;;8.13;4.10;;;20.10;16.40;;;;;;5083641;28;20278;-86
2023/10/08 09:46:16;;;;;;;11.80;3.78;;;20.20;16.50;;;;;;5095674;28;20195;-86
2023/10/08 09:48:48;;;;;;;7.45;3.40;;;20.30;16.30;;;;;;5082715;28;20209;-86
2023/10/08 09:51:15;;;;;;;12.15;3.88;;;20.40;16.30;;;;;;5091722;28;20707;-85
2023/10/08 09:53:49;;;;;;;12.25;3.85;;;20.60;16.00;;;;;;5094587;28;20215;-86
2023/10/08 09:56:17;;;;;;;9.93;3.95;;;20.90;16.10;;;;;;5083818;28;20716;-86
2023/10/08 09:58:49;;;;;;;9.45;4.15;;;21.10;15.70;;;;;;5088873;28;20200;-86
2023/10/08 10:01:20;;;;;;;10.07;4.00;;;21.40;15.10;;;;;;5090490;28;20710;-86
2023/10/08 10:03:47;;;;;;;13.95;4.55;;;21.80;14.20;;;;;;5083887;28;20197;-86
2023/10/08 10:06:15;;;;;;;6.32;4.00;;;22.00;13.60;;;;;;5086471;28;20197;-86
2023/10/08 10:08:44;;;;;;;12.27;4.72;;;22.30;12.40;;;;;;5091372;28;20200;-84
2023/10/08 10:11:12;;;;;;;8.98;4.00;;;22.20;12.40;;;;;;5091307;28;20205;-84
2023/10/08 10:13:47;;;;;;;10.98;4.15;;;22.20;13.40;;;;;;5085970;28;20769;-84
2023/10/08 10:16:19;;;;;;;12.90;4.20;;;22.10;12.30;;;;;;5081306;28;20311;-84
2023/10/08 10:18:47;;;;;;;10.25;4.25;;;22.00;12.60;;;;;;5087644;28;20805;-84
2023/10/08 10:21:30;;;;;;;9.45;4.00;;;22.10;13.00;;;;;;5083708;28;20818;-85
2023/10/08 10:23:58;;;;;;;13.35;4.28;;;22.20;12.40;;;;;;5083244;28;20280;-85
2023/10/08 10:26:28;;;;;;;9.20;4.32;;;21.90;13.00;;;;;;5090385;28;20569;-85
2023/10/08 10:29:33;;;;;;;10.98;4.30;;;21.70;14.60;;;;;;5086980;28;20201;-85
2023/10/08 10:32:00;;;;;;;8.30;4.10;;;21.60;14.10;;;;;;5095608;28;20203;-85
2023/10/08 10:34:28;;;;;;;13.25;4.18;;;21.50;15.30;;;;;;5083734;28;20201;-85
2023/10/08 10:36:58;;;;;;;12.43;3.97;;;21.30;15.40;;;;;;5093718;28;20200;-84
2023/10/08 10:39:33;;;;;;;11.82;4.00;;;21.20;14.70;;;;;;5091468;28;20209;-85
2023/10/08 10:42:06;;;;;;;13.40;4.85;;;21.10;15.50;;;;;;5086325;28;20258;-85
2023/10/08 10:44:36;;;;;;;10.00;3.97;;;21.00;15.90;;;;;;5080342;28;20673;-85
2023/10/08 10:49:52;;;;;;;10.05;3.83;;;20.90;16.00;;;;;;5076146;28;20279;-85
2023/10/08 10:52:31;;;;;;;13.73;4.38;;;20.80;16.00;;;;;;5086418;28;20213;-85
2023/10/08 10:55:17;;;;;;;11.30;4.40;;;20.90;16.00;;;;;;5088025;28;20220;-85
2023/10/08 10:57:44;;;;;;;12.57;4.38;;;20.90;16.40;;;;;;5089209;28;20272;-84
2023/10/08 11:00:47;;;;;;;14.20;4.70;;;20.80;16.10;;;;;;5093117;28;20261;-84
2023/10/08 11:03:15;;;;;;;7.78;4.15;;;20.70;16.10;;;;;;5096718;28;20260;-84
2023/10/08 11:05:47;;;;;;;16.52;4.80;;;20.60;16.90;;;;;;5084498;28;20606;-84
2023/10/08 11:08:18;;;;;;;11.07;4.03;;;20.60;17.20;;;;;;5088731;28;20657;-84
2023/10/08 11:10:50;;;;;;;11.95;4.22;;;20.50;17.50;;;;;;5092144;28;20917;-84
2023/10/08 11:13:18;;;;;;;11.80;4.10;;;20.50;17.50;;;;;;5082485;28;20252;-86
2023/10/08 11:15:51;;;;;;;11.32;3.97;;;20.50;18.00;;;;;;5102304;28;20227;-86
2023/10/08 11:18:19;;;;;;;11.65;4.32;;;20.40;18.30;;;;;;5086580;28;20243;-86
2023/10/08 11:20:51;;;;;;;10.77;4.38;;;20.30;18.30;;;;;;5086571;28;20646;-89
2023/10/08 11:23:33;;;;;;;13.50;4.63;;;20.30;18.80;;;;;;5087240;28;20200;-86
2023/10/08 11:26:03;;;;;;;12.98;4.50;;;20.40;18.70;;;;;;5084533;28;20197;-86
2023/10/08 11:28:33;;;;;;;13.93;4.47;;;20.40;19.00;;;;;;5085836;28;20189;-87
2023/10/08 11:31:07;;;;;;;13.68;4.80;;;20.40;19.70;;;;;;5091613;28;20197;-88
2023/10/08 11:33:36;;;;;;;13.82;4.28;;;20.30;19.50;;;;;;5086194;28;20217;-85
2023/10/08 11:36:06;;;;;;;9.27;4.22;;;20.30;19.80;;;;;;5112336;27;20232;-85
2023/10/08 11:38:40;;;;;;;12.90;4.13;;;20.30;19.50;;;;;;5089778;28;20193;-85
2023/10/08 11:41:20;;;;;;;10.20;4.35;;;20.40;19.70;;;;;;5085762;28;20199;-85
2023/10/08 11:43:48;;;;;;;10.63;4.10;;;20.40;19.10;;;;;;5098196;28;20207;-87
2023/10/08 11:46:18;;;;;;;15.50;4.70;;;20.40;19.00;;;;;;5095817;28;20231;-87
2023/10/08 11:48:47;;;;;;;10.63;4.13;;;20.50;18.70;;;;;;5085002;28;20201;-88
2023/10/08 11:51:16;;;;;;;16.42;4.30;;;20.60;18.80;;;;;;5074591;28;21375;-87
2023/10/08 11:53:44;;;;;;;12.60;4.00;;;20.60;18.70;;;;;;5078616;28;20212;-87
2023/10/08 11:56:13;;;;;;;15.70;4.45;;;20.70;19.10;;;;;;5090409;28;20224;-87
2023/10/08 11:58:44;;;;;;;14.70;4.40;;;20.60;18.40;;;;;;5089140;28;21947;-87
2023/10/08 12:01:15;;;;;;;12.30;4.30;;;20.60;19.00;;;;;;5083210;28;20200;-88
2023/10/08 12:03:44;;;;;;;16.38;4.40;;;20.60;19.20;;;;;;5107898;27;20254;-88
2023/10/08 12:06:15;;;;;;;12.30;4.40;;;20.60;18.50;;;;;;5078070;28;20195;-87
2023/10/08 12:08:45;;;;;;;12.13;4.10;;;20.60;18.00;;;;;;5092231;28;20315;-87
2023/10/08 12:11:12;;;;;;;12.25;4.13;;;20.60;18.60;;;;;;5081448;28;20709;-88
2023/10/08 12:13:44;;;;;;;12.13;4.32;;;20.70;17.90;;;;;;5074862;28;20213;-87
2023/10/08 12:16:18;;;;;;;13.07;4.25;;;20.70;18.50;;;;;;5118325;27;20232;-86
2023/10/08 12:18:48;;;;;;;13.15;4.20;;;20.70;17.70;;;;;;5074165;28;20666;-86
2023/10/08 12:21:18;;;;;;;12.90;3.65;;;20.80;17.60;;;;;;5086098;28;20193;-89
2023/10/08 12:23:46;;;;;;;13.98;4.32;;;20.70;19.00;;;;;;5092088;28;20196;-88
2023/10/08 12:26:18;;;;;;;18.17;4.75;;;20.70;17.70;;;;;;5097381;28;20699;-88
2023/10/08 12:28:45;;;;;;;14.77;4.38;;;20.60;17.90;;;;;;5092977;28;20202;-88
2023/10/08 12:31:15;;;;;;;16.50;4.45;;;20.60;18.40;;;;;;5078002;28;20662;-88
2023/10/08 12:33:44;;;;;;;11.88;4.60;;;20.50;18.20;;;;;;5083128;28;20200;-88
2023/10/08 12:36:16;;;;;;;9.82;4.18;;;20.50;18.20;;;;;;5091691;28;20208;-89
2023/10/08 12:38:44;;;;;;;12.48;4.72;;;20.40;19.00;;;;;;5081772;28;20210;-87
2023/10/08 12:41:14;;;;;;;14.57;4.43;;;20.30;18.80;;;;;;5098378;28;20195;-86
2023/10/08 12:43:44;;;;;;;12.00;4.00;;;20.20;18.60;;;;;;5083783;28;20233;-86
2023/10/08 12:46:18;;;;;;;13.07;3.78;;;20.10;19.10;;;;;;5092024;28;20625;-86
2023/10/08 12:48:47;;;;;;;10.40;3.92;;;20.10;19.10;;;;;;5091914;28;20245;-86
2023/10/08 12:51:16;;;;;;;17.38;4.53;;;20.10;18.90;;;;;;5084823;28;20262;-86
2023/10/08 12:53:50;;;;;;;9.98;4.35;;;20.20;18.90;;;;;;5073731;28;20279;-86
2023/10/08 12:56:21;;;;;;;19.52;4.72;;;20.20;18.90;;;;;;5085942;28;20303;-86
2023/10/08 12:58:49;;;;;;;14.30;3.88;;;20.10;19.20;;;;;;5090172;28;20208;-88
2023/10/08 13:01:17;;;;;;;11.35;3.60;;;20.20;19.20;;;;;;5087105;28;20192;-85
2023/10/08 13:03:47;;;;;;;12.65;3.60;;;20.20;18.70;;;;;;5081247;28;20200;-86
2023/10/08 13:06:21;;;;;;;14.45;4.20;;;20.40;18.20;;;;;;5082414;28;20258;-86
2023/10/08 13:08:50;;;;;;;15.30;4.35;;;20.50;18.50;;;;;;5075887;28;20192;-88
2023/10/08 13:11:22;;;;;;;10.93;3.80;;;20.40;18.60;;;;;;5084796;28;20197;-89
2023/10/08 13:13:51;;;;;;;12.80;4.10;;;20.30;20.00;;;;;;5080927;28;20385;-88
2023/10/08 13:16:22;;;;;;;11.63;4.45;;;20.20;19.80;;;;;;5086086;28;20216;-88
2023/10/08 13:18:49;;;;;;;14.70;3.97;;;20.20;20.00;;;;;;5083910;28;20204;-88
2023/10/08 13:21:18;;;;;;;10.82;4.03;;;20.20;20.00;;;;;;5089006;28;20208;-88